National Weather Service Raw Text Product

Displaying AFOS PIL: TAFFOD Received: 2017-10-13 13:19 UTC


523 
FTUS43 KDMX 131319 AAA
TAFFOD
TAF AMD
KFOD 131319Z 1313/1412 03006KT P6SM SCT003 BKN100
     FM131700 03008KT P6SM VCSH BKN040
     FM132100 04008KT P6SM OVC040
     FM140900 06006KT P6SM BKN023=